createdAt,value
2018-10-21T00:00:12.799Z,15.83
2018-10-21T00:02:41.092Z,14.40
2018-10-21T00:05:10.329Z,14.33
2018-10-21T00:07:38.665Z,16.13
2018-10-21T00:10:07.756Z,16.53
2018-10-21T00:12:35.993Z,15.80
2018-10-21T00:15:04.187Z,17.87
2018-10-21T00:17:32.354Z,15.80
2018-10-21T00:20:00.534Z,17.40
2018-10-21T00:22:28.737Z,16.27
2018-10-21T00:24:56.953Z,17.50
2018-10-21T00:27:25.202Z,16.27
2018-10-21T00:29:53.392Z,19.17
2018-10-21T00:32:25.826Z,19.40
2018-10-21T00:34:53.992Z,19.27
2018-10-21T00:37:22.163Z,16.90
2018-10-21T00:39:50.300Z,15.43
2018-10-21T00:42:18.480Z,16.87
2018-10-21T00:44:46.638Z,17.57
2018-10-21T00:47:14.825Z,16.97
2018-10-21T00:49:43.019Z,17.97
2018-10-21T00:52:11.196Z,19.13
2018-10-21T00:54:39.372Z,19.03
2018-10-21T00:57:07.634Z,16.90
2018-10-21T00:59:35.717Z,18.67
2018-10-21T01:02:03.925Z,17.67
2018-10-21T01:04:32.106Z,18.05
2018-10-21T01:07:00.998Z,17.73
2018-10-21T01:09:29.201Z,18.00
2018-10-21T01:11:57.439Z,16.30
2018-10-21T01:14:25.614Z,19.23
2018-10-21T01:16:53.832Z,17.90
2018-10-21T01:19:22.018Z,18.77
2018-10-21T01:21:50.184Z,18.00
2018-10-21T01:24:18.413Z,16.80
2018-10-21T01:26:46.598Z,17.30
2018-10-21T01:29:14.793Z,18.70
2018-10-21T01:31:42.986Z,18.90
2018-10-21T01:34:11.137Z,18.07
2018-10-21T01:36:39.398Z,18.13
2018-10-21T01:39:09.168Z,18.17
2018-10-21T01:41:37.302Z,18.70
2018-10-21T01:44:05.447Z,17.80
2018-10-21T01:46:33.629Z,18.20
2018-10-21T01:49:01.815Z,17.03
2018-10-21T01:51:29.974Z,17.90
2018-10-21T01:53:58.156Z,17.83
2018-10-21T01:56:26.422Z,18.50
2018-10-21T01:58:54.584Z,18.50
2018-10-21T02:01:22.761Z,17.60
2018-10-21T02:03:50.914Z,17.90
2018-10-21T02:06:19.092Z,19.10
2018-10-21T02:08:47.261Z,20.10
2018-10-21T02:11:15.438Z,18.33
2018-10-21T02:13:43.613Z,18.33
2018-10-21T02:16:11.798Z,20.23
2018-10-21T02:18:39.976Z,19.67
2018-10-21T02:21:08.150Z,17.73
2018-10-21T02:23:36.299Z,19.40
2018-10-21T02:26:04.548Z,16.30
2018-10-21T02:28:32.742Z,18.90
2018-10-21T02:31:01.055Z,18.90
2018-10-21T02:33:29.555Z,17.80
2018-10-21T02:35:57.602Z,18.60
2018-10-21T02:38:25.785Z,18.40
2018-10-21T02:41:35.545Z,17.83
2018-10-21T02:44:04.377Z,17.63
2018-10-21T02:46:33.204Z,16.50
2018-10-21T02:49:01.939Z,18.70
2018-10-21T02:51:30.343Z,20.63
2018-10-21T02:53:58.553Z,19.00
2018-10-21T02:56:26.729Z,18.87
2018-10-21T02:58:54.926Z,17.83
2018-10-21T03:01:23.136Z,17.47
2018-10-21T03:03:51.311Z,18.30
2018-10-21T03:06:19.626Z,19.57
2018-10-21T03:08:47.794Z,18.67
2018-10-21T03:11:15.989Z,17.37
2018-10-21T03:13:44.149Z,17.47
2018-10-21T03:16:12.328Z,20.17
2018-10-21T03:18:40.726Z,18.50
2018-10-21T03:21:08.917Z,16.10
2018-10-21T03:23:37.083Z,19.03
2018-10-21T03:26:05.293Z,18.30
2018-10-21T03:28:34.129Z,20.27
2018-10-21T03:31:02.517Z,17.60
2018-10-21T03:33:31.187Z,17.43
2018-10-21T03:35:59.517Z,17.33
2018-10-21T03:38:27.710Z,18.10
2018-10-21T03:40:55.869Z,17.43
2018-10-21T03:43:24.051Z,17.73
2018-10-21T03:45:52.256Z,16.60
2018-10-21T03:48:20.408Z,18.20
2018-10-21T03:50:48.613Z,18.93
2018-10-21T03:53:16.837Z,19.20
2018-10-21T03:55:45.094Z,17.60
2018-10-21T03:58:13.474Z,17.37
2018-10-21T04:00:41.545Z,18.87
2018-10-21T04:03:09.757Z,18.50
2018-10-21T04:05:38.265Z,20.20
2018-10-21T04:08:06.504Z,18.67
2018-10-21T04:10:34.722Z,18.83
2018-10-21T04:13:02.885Z,18.73
2018-10-21T04:15:31.109Z,20.10
2018-10-21T04:17:59.446Z,19.60
2018-10-21T04:20:27.646Z,20.80
2018-10-21T04:22:59.817Z,18.50
2018-10-21T04:25:28.978Z,17.90
2018-10-21T04:27:57.933Z,19.60
2018-10-21T04:30:27.247Z,18.73
2018-10-21T04:33:03.999Z,20.40
2018-10-21T04:35:32.653Z,18.30
2018-10-21T04:40:20.992Z,19.30
2018-10-21T04:42:49.619Z,17.53
2018-10-21T04:45:20.102Z,17.80
2018-10-21T04:47:48.339Z,17.03
2018-10-21T04:50:16.524Z,19.10
2018-10-21T04:52:44.776Z,19.80
2018-10-21T04:55:14.956Z,18.97
2018-10-21T04:57:44.350Z,18.03
2018-10-21T05:00:14.487Z,19.50
2018-10-21T05:02:42.838Z,16.33
2018-10-21T05:05:12.016Z,17.87
2018-10-21T05:07:40.632Z,18.63
2018-10-21T05:10:25.377Z,18.00
2018-10-21T05:12:53.532Z,19.90
2018-10-21T05:15:22.684Z,18.27
2018-10-21T05:17:51.028Z,18.00
2018-10-21T05:20:19.220Z,17.60
2018-10-21T05:22:47.383Z,16.90
2018-10-21T05:25:15.589Z,18.67
2018-10-21T05:27:43.861Z,16.83
2018-10-21T05:30:12.847Z,17.40
2018-10-21T05:32:41.234Z,16.27
2018-10-21T05:35:10.832Z,18.03
2018-10-21T05:37:39.378Z,18.73
2018-10-21T05:40:09.120Z,17.83
2018-10-21T05:42:37.269Z,17.47
2018-10-21T05:45:06.153Z,17.33
2018-10-21T05:47:34.742Z,16.00
2018-10-21T05:50:02.937Z,17.67
2018-10-21T05:52:31.086Z,17.37
2018-10-21T05:54:59.275Z,18.03
2018-10-21T05:57:27.467Z,18.17
2018-10-21T05:59:55.645Z,17.83
2018-10-21T06:02:23.876Z,18.87
2018-10-21T06:04:52.538Z,16.87
2018-10-21T06:07:20.870Z,17.87
2018-10-21T06:09:49.140Z,18.27
2018-10-21T06:12:17.332Z,20.33
2018-10-21T06:14:45.536Z,18.93
2018-10-21T06:17:17.046Z,18.17
2018-10-21T06:19:49.167Z,20.17
2018-10-21T06:22:17.419Z,19.07
2018-10-21T06:24:45.511Z,19.53
2018-10-21T06:27:13.689Z,19.60
2018-10-21T06:29:41.869Z,19.77
2018-10-21T06:32:10.044Z,19.20
2018-10-21T06:34:38.274Z,17.97
2018-10-21T06:37:06.431Z,19.20
2018-10-21T06:39:34.630Z,18.57
2018-10-21T06:42:02.776Z,18.70
2018-10-21T06:44:30.951Z,19.07
2018-10-21T06:46:59.126Z,19.23
2018-10-21T06:49:27.284Z,17.57
2018-10-21T06:51:55.468Z,20.70
2018-10-21T06:54:23.673Z,21.10
2018-10-21T06:56:52.091Z,19.37
2018-10-21T06:59:20.028Z,21.60
2018-10-21T07:01:48.190Z,17.90
2018-10-21T07:04:16.388Z,18.33
2018-10-21T07:06:44.536Z,16.70
2018-10-21T07:09:12.729Z,18.57
2018-10-21T07:11:40.899Z,16.07
2018-10-21T07:14:09.062Z,18.13
2018-10-21T07:16:37.373Z,16.17
2018-10-21T07:19:05.392Z,15.87
2018-10-21T07:21:33.548Z,17.20
2018-10-21T07:24:01.726Z,15.70
2018-10-21T07:26:29.861Z,15.70
2018-10-21T07:28:58.014Z,16.63
2018-10-21T07:31:26.198Z,15.43
2018-10-21T07:33:54.562Z,15.50
2018-10-21T07:36:22.748Z,18.20
2018-10-21T07:38:50.853Z,16.00
2018-10-21T07:41:19.018Z,16.07
2018-10-21T07:43:47.152Z,16.30
2018-10-21T07:46:15.423Z,18.53
2018-10-21T07:48:43.594Z,18.10
2018-10-21T07:51:11.753Z,16.20
2018-10-21T07:53:39.918Z,15.90
2018-10-21T07:56:08.113Z,15.10
2018-10-21T07:58:36.271Z,16.67
2018-10-21T08:01:04.503Z,15.87
2018-10-21T08:03:32.648Z,15.90
2018-10-21T08:06:29.560Z,16.73
2018-10-21T08:08:57.816Z,14.70
2018-10-21T08:11:25.976Z,14.97
2018-10-21T08:13:54.136Z,16.07
2018-10-21T08:16:22.462Z,16.30
2018-10-21T08:18:51.170Z,14.97
2018-10-21T08:21:19.434Z,14.97
2018-10-21T08:23:47.616Z,15.50
2018-10-21T08:26:15.796Z,14.10
2018-10-21T08:28:43.983Z,14.37
2018-10-21T08:31:12.268Z,15.43
2018-10-21T08:33:40.408Z,13.90
2018-10-21T08:36:08.788Z,15.20
2018-10-21T08:38:36.940Z,15.07
2018-10-21T08:41:05.116Z,14.97
2018-10-21T08:43:33.273Z,13.83
2018-10-21T08:46:01.545Z,14.00
2018-10-21T08:48:29.653Z,14.23
2018-10-21T08:50:57.841Z,15.63
2018-10-21T08:53:26.014Z,14.20
2018-10-21T08:55:54.238Z,14.50
2018-10-21T08:58:22.344Z,14.37
2018-10-21T09:00:50.544Z,14.50
2018-10-21T09:03:18.697Z,14.30
2018-10-21T09:05:46.852Z,15.83
2018-10-21T09:08:14.996Z,14.37
2018-10-21T09:10:43.316Z,16.30
2018-10-21T09:13:11.409Z,15.60
2018-10-21T09:15:39.580Z,16.37
2018-10-21T09:18:07.794Z,14.30
2018-10-21T09:20:35.952Z,16.00
2018-10-21T09:23:04.204Z,15.23
2018-10-21T09:25:32.369Z,13.63
2018-10-21T09:28:00.595Z,11.93
2018-10-21T09:30:28.728Z,12.10
2018-10-21T09:32:56.910Z,12.13
2018-10-21T09:35:25.102Z,11.80
2018-10-21T09:37:53.297Z,12.23
2018-10-21T09:40:21.509Z,11.73
2018-10-21T09:42:50.199Z,11.77
2018-10-21T09:45:19.712Z,11.27
2018-10-21T09:47:47.928Z,10.23
2018-10-21T09:50:16.093Z,10.40
2018-10-21T09:52:44.296Z,11.77
2018-10-21T09:55:19.160Z,13.50
2018-10-21T09:57:48.052Z,11.40
2018-10-21T10:00:21.667Z,13.77
2018-10-21T10:02:55.417Z,11.00
2018-10-21T10:05:23.952Z,11.03
2018-10-21T10:07:52.624Z,11.47
2018-10-21T10:10:20.794Z,12.13
2018-10-21T10:12:48.998Z,12.23
2018-10-21T10:15:17.489Z,11.97
2018-10-21T10:17:45.825Z,12.40
2018-10-21T10:20:13.869Z,10.77
2018-10-21T10:22:42.064Z,12.13
2018-10-21T10:25:11.031Z,10.87
2018-10-21T10:27:39.476Z,11.57
2018-10-21T10:30:09.572Z,14.60
2018-10-21T10:32:38.027Z,13.00
2018-10-21T10:35:06.586Z,13.57
2018-10-21T10:37:34.878Z,11.23
2018-10-21T10:40:03.054Z,11.67
2018-10-21T10:42:31.229Z,10.80
2018-10-21T10:44:59.417Z,12.53
2018-10-21T10:47:27.629Z,11.83
2018-10-21T10:49:55.824Z,10.37
2018-10-21T10:52:24.070Z,10.43
2018-10-21T10:54:52.260Z,11.07
2018-10-21T10:57:20.754Z,12.20
2018-10-21T10:59:48.990Z,11.40
2018-10-21T11:02:17.177Z,10.50
2018-10-21T11:04:46.015Z,10.10
2018-10-21T11:07:14.284Z,10.90
2018-10-21T11:09:42.765Z,11.10
2018-10-21T11:12:11.097Z,9.57
2018-10-21T11:14:39.319Z,10.07
2018-10-21T11:17:07.599Z,8.77
2018-10-21T11:19:35.768Z,8.33
2018-10-21T11:22:04.057Z,8.63
2018-10-21T11:24:32.231Z,8.77
2018-10-21T11:27:00.410Z,8.80
2018-10-21T11:29:28.575Z,7.13
2018-10-21T11:31:56.781Z,7.03
2018-10-21T11:34:24.972Z,8.17
2018-10-21T11:36:53.196Z,7.10
2018-10-21T11:39:21.308Z,8.27
2018-10-21T11:41:49.509Z,7.70
2018-10-21T11:44:17.757Z,6.90
2018-10-21T11:46:46.064Z,7.73
2018-10-21T11:49:14.389Z,7.43
2018-10-21T11:51:42.444Z,6.93
2018-10-21T11:54:10.619Z,9.10
2018-10-21T11:56:38.783Z,7.43
2018-10-21T11:59:07.828Z,7.57
2018-10-21T12:01:36.052Z,7.80
2018-10-21T12:04:04.696Z,7.50
2018-10-21T12:06:32.840Z,7.13
2018-10-21T12:09:01.027Z,5.73
2018-10-21T12:11:29.204Z,5.73
2018-10-21T12:13:57.412Z,4.70
2018-10-21T12:16:25.682Z,6.27
2018-10-21T12:18:54.066Z,5.53
2018-10-21T12:21:22.206Z,4.80
2018-10-21T12:23:50.398Z,5.93
2018-10-21T12:26:18.616Z,5.63
2018-10-21T12:28:46.771Z,4.90
2018-10-21T12:31:15.016Z,5.70
2018-10-21T12:33:44.212Z,5.10
2018-10-21T12:36:13.704Z,4.70
2018-10-21T12:38:41.984Z,5.57
2018-10-21T12:41:10.718Z,3.70
2018-10-21T12:43:39.657Z,4.67
2018-10-21T12:46:07.821Z,4.20
2018-10-21T12:48:36.108Z,5.47
2018-10-21T12:51:04.311Z,4.33
2018-10-21T12:53:32.495Z,3.77
2018-10-21T12:56:01.461Z,4.93
2018-10-21T12:58:29.675Z,3.80
2018-10-21T13:00:57.884Z,3.77
2018-10-21T13:03:26.079Z,4.47
2018-10-21T13:05:54.267Z,3.30
2018-10-21T13:08:22.532Z,4.30
2018-10-21T13:10:50.716Z,3.93
2018-10-21T13:13:18.925Z,3.10
2018-10-21T13:15:47.065Z,3.30
2018-10-21T13:18:15.289Z,4.20
2018-10-21T13:20:43.469Z,3.53
2018-10-21T13:23:11.648Z,3.37
2018-10-21T13:25:39.841Z,2.80
2018-10-21T13:28:08.055Z,2.37
2018-10-21T13:30:36.160Z,3.40
2018-10-21T13:33:04.391Z,3.83
2018-10-21T13:35:32.539Z,4.20
2018-10-21T13:38:00.713Z,3.17
2018-10-21T13:40:28.892Z,3.27
2018-10-21T13:42:57.051Z,3.70
2018-10-21T13:45:25.246Z,3.13
2018-10-21T13:47:53.442Z,4.73
2018-10-21T13:50:21.598Z,3.67
2018-10-21T13:52:49.780Z,3.20
2018-10-21T13:55:17.905Z,3.30
2018-10-21T13:57:46.057Z,2.90
2018-10-21T14:00:14.215Z,3.27
2018-10-21T14:02:42.590Z,3.53
2018-10-21T14:05:10.811Z,4.40
2018-10-21T14:07:39.224Z,3.27
2018-10-21T14:10:07.486Z,3.27
2018-10-21T14:12:35.831Z,3.20
2018-10-21T14:15:04.161Z,3.83
2018-10-21T14:17:32.288Z,3.77
2018-10-21T14:20:00.465Z,4.50
2018-10-21T14:22:28.627Z,4.00
2018-10-21T14:24:56.834Z,4.30
2018-10-21T14:27:24.991Z,4.10
2018-10-21T14:29:53.217Z,3.77
2018-10-21T14:32:21.351Z,3.50
2018-10-21T14:34:49.533Z,4.30
2018-10-21T14:37:17.777Z,3.70
2018-10-21T14:39:45.959Z,3.47
2018-10-21T14:42:14.213Z,3.70
2018-10-21T14:44:42.327Z,4.90
2018-10-21T14:47:10.540Z,4.60
2018-10-21T14:49:38.758Z,3.60
2018-10-21T14:52:06.939Z,4.00
2018-10-21T14:54:35.164Z,3.87
2018-10-21T14:57:03.370Z,4.27
2018-10-21T14:59:31.614Z,3.73
2018-10-21T15:01:59.800Z,3.60
2018-10-21T15:04:28.005Z,3.43
2018-10-21T15:06:56.329Z,4.30
2018-10-21T15:09:24.821Z,2.70
2018-10-21T15:11:53.004Z,3.83
2018-10-21T15:14:21.217Z,2.87
2018-10-21T15:16:49.385Z,3.80
2018-10-21T15:19:17.564Z,4.83
2018-10-21T15:21:45.744Z,3.17
2018-10-21T15:24:13.925Z,3.00
2018-10-21T15:26:42.133Z,3.50
2018-10-21T15:29:10.350Z,4.60
2018-10-21T15:31:38.501Z,3.87
2018-10-21T15:34:06.763Z,3.53
2018-10-21T15:36:34.935Z,4.60
2018-10-21T15:39:04.713Z,2.67
2018-10-21T15:41:32.901Z,2.93
2018-10-21T15:44:01.145Z,3.27
2018-10-21T15:46:29.318Z,2.73
2018-10-21T15:48:57.589Z,2.57
2018-10-21T15:51:25.644Z,3.70
2018-10-21T15:53:53.889Z,3.10
2018-10-21T15:56:22.089Z,2.60
2018-10-21T15:58:50.290Z,3.87
2018-10-21T16:01:18.590Z,2.67
2018-10-21T16:03:46.841Z,4.13
2018-10-21T16:06:15.073Z,3.20
2018-10-21T16:08:43.305Z,2.77
2018-10-21T16:11:11.487Z,3.03
2018-10-21T16:13:39.762Z,3.43
2018-10-21T16:16:07.960Z,2.97
2018-10-21T16:18:36.205Z,3.30
2018-10-21T16:21:04.420Z,2.77
2018-10-21T16:23:32.685Z,3.37
2018-10-21T16:26:01.078Z,3.47
2018-10-21T16:28:29.138Z,2.60
2018-10-21T16:30:57.337Z,2.53
2018-10-21T16:33:25.725Z,4.03
2018-10-21T16:35:53.894Z,3.83
2018-10-21T16:38:22.106Z,3.60
2018-10-21T16:40:50.193Z,3.97
2018-10-21T16:43:18.349Z,3.20
2018-10-21T16:45:46.525Z,4.20
2018-10-21T16:48:14.836Z,4.90
2018-10-21T16:50:42.954Z,4.33
2018-10-21T16:53:11.155Z,3.60
2018-10-21T16:55:39.313Z,4.20
2018-10-21T16:58:07.488Z,3.83
2018-10-21T17:00:35.917Z,3.90
2018-10-21T17:03:03.937Z,4.07
2018-10-21T17:05:32.047Z,4.40
2018-10-21T17:08:00.218Z,4.80
2018-10-21T17:10:28.593Z,4.20
2018-10-21T17:12:56.523Z,4.70
2018-10-21T17:15:24.675Z,6.10
2018-10-21T17:17:52.844Z,6.30
2018-10-21T17:20:21.002Z,3.80
2018-10-21T17:22:49.160Z,3.33
2018-10-21T17:25:17.402Z,5.30
2018-10-21T17:27:45.525Z,4.80
2018-10-21T17:30:15.379Z,7.50
2018-10-21T17:32:44.213Z,4.53
2018-10-21T17:35:12.383Z,3.97
2018-10-21T17:37:40.695Z,3.50
2018-10-21T17:40:09.837Z,3.90
2018-10-21T17:42:37.969Z,4.60
2018-10-21T17:45:08.253Z,5.00
2018-10-21T17:47:36.461Z,5.13
2018-10-21T17:50:05.350Z,4.80
2018-10-21T17:52:33.630Z,5.07
2018-10-21T17:55:01.806Z,4.23
2018-10-21T17:57:29.942Z,4.67
2018-10-21T17:59:58.085Z,4.63
2018-10-21T18:02:26.309Z,6.13
2018-10-21T18:04:54.575Z,5.13
2018-10-21T18:07:22.751Z,4.00
2018-10-21T18:09:51.071Z,3.43
2018-10-21T18:12:19.255Z,4.40
2018-10-21T18:14:47.938Z,6.27
2018-10-21T18:17:15.975Z,6.00
2018-10-21T18:19:44.140Z,5.57
2018-10-21T18:22:12.427Z,4.80
2018-10-21T18:24:40.598Z,6.43
2018-10-21T18:27:09.594Z,5.43
2018-10-21T18:29:37.852Z,5.40
2018-10-21T18:32:06.024Z,5.60
2018-10-21T18:34:35.093Z,5.50
2018-10-21T18:37:03.280Z,5.77
2018-10-21T18:39:31.444Z,6.40
2018-10-21T18:41:59.791Z,6.60
2018-10-21T18:44:28.250Z,7.43
2018-10-21T18:46:56.515Z,9.03
2018-10-21T18:49:24.680Z,7.73
2018-10-21T18:51:52.843Z,7.37
2018-10-21T18:54:21.008Z,6.90
2018-10-21T18:56:49.194Z,7.53
2018-10-21T18:59:17.420Z,7.53
2018-10-21T19:01:45.598Z,6.70
2018-10-21T19:04:13.891Z,11.57
2018-10-21T19:06:41.976Z,11.90
2018-10-21T19:09:11.502Z,8.47
2018-10-21T19:11:39.912Z,9.20
2018-10-21T19:14:08.376Z,8.30
2018-10-21T19:16:36.590Z,8.30
2018-10-21T19:19:05.287Z,7.60
2018-10-21T19:21:33.461Z,6.43
2018-10-21T19:24:01.936Z,7.70
2018-10-21T19:26:30.219Z,6.87
2018-10-21T19:28:58.400Z,7.10
2018-10-21T19:31:26.860Z,7.67
2018-10-21T19:33:55.129Z,10.00
2018-10-21T19:36:23.278Z,9.73
2018-10-21T19:38:51.493Z,8.90
2018-10-21T19:41:19.707Z,6.97
2018-10-21T19:43:48.189Z,9.50
2018-10-21T19:46:16.501Z,7.33
2018-10-21T19:48:44.631Z,8.60
2018-10-21T19:51:13.002Z,8.00
2018-10-21T19:53:41.157Z,8.00
2018-10-21T19:56:09.324Z,9.27
2018-10-21T19:58:37.798Z,7.70
2018-10-21T20:01:06.481Z,7.90
2018-10-21T20:03:34.563Z,7.60
2018-10-21T20:06:02.776Z,9.40
2018-10-21T20:08:30.943Z,7.63
2018-10-21T20:10:59.133Z,7.40
2018-10-21T20:13:27.372Z,7.97
2018-10-21T20:15:55.606Z,7.90
2018-10-21T20:18:23.799Z,8.93
2018-10-21T20:20:51.978Z,7.37
2018-10-21T20:23:20.121Z,9.63
2018-10-21T20:25:48.344Z,8.43
2018-10-21T20:28:16.591Z,8.27
2018-10-21T20:30:44.788Z,9.50
2018-10-21T20:33:12.999Z,8.63
2018-10-21T20:35:41.118Z,9.43
2018-10-21T20:38:09.305Z,8.03
2018-10-21T20:40:37.469Z,8.43
2018-10-21T20:43:05.817Z,8.73
2018-10-21T20:45:33.974Z,9.57
2018-10-21T20:48:02.174Z,10.00
2018-10-21T20:50:30.334Z,8.77
2018-10-21T20:52:58.509Z,8.80
2018-10-21T20:55:26.665Z,9.17
2018-10-21T20:57:54.892Z,9.03
2018-10-21T21:00:22.990Z,9.23
2018-10-21T21:02:51.163Z,9.93
2018-10-21T21:05:19.325Z,9.37
2018-10-21T21:07:47.485Z,7.90
2018-10-21T21:10:15.715Z,8.80
2018-10-21T21:12:43.929Z,9.30
2018-10-21T21:15:12.582Z,8.80
2018-10-21T21:17:40.726Z,9.83
2018-10-21T21:20:09.658Z,9.17
2018-10-21T21:22:38.303Z,7.63
2018-10-21T21:25:06.710Z,8.97
2018-10-21T21:27:34.932Z,7.03
2018-10-21T21:30:03.155Z,9.10
2018-10-21T21:32:31.286Z,7.87
2018-10-21T21:34:59.445Z,7.90
2018-10-21T21:37:27.610Z,7.23
2018-10-21T21:39:55.867Z,7.70
2018-10-21T21:42:24.021Z,8.73
2018-10-21T21:44:52.166Z,8.30
2018-10-21T21:47:20.374Z,7.60
2018-10-21T21:49:48.549Z,7.00
2018-10-21T21:52:16.842Z,6.83
2018-10-21T21:54:44.872Z,8.60
2018-10-21T21:57:13.407Z,7.90
2018-10-21T21:59:41.560Z,6.83
2018-10-21T22:02:09.731Z,9.30
2018-10-21T22:04:37.876Z,8.77
2018-10-21T22:07:06.038Z,7.70
2018-10-21T22:09:34.230Z,8.93
2018-10-21T22:12:02.368Z,8.47
2018-10-21T22:14:30.491Z,6.27
2018-10-21T22:16:58.708Z,7.80
2018-10-21T22:19:26.836Z,10.33
2018-10-21T22:21:55.057Z,10.50
2018-10-21T22:24:23.164Z,9.03
2018-10-21T22:26:51.313Z,8.50
2018-10-21T22:29:19.468Z,8.50
2018-10-21T22:31:47.631Z,8.00
2018-10-21T22:34:15.791Z,9.33
2018-10-21T22:36:43.890Z,8.90
2018-10-21T22:39:12.033Z,8.57
2018-10-21T22:41:40.189Z,10.37
2018-10-21T22:44:08.360Z,8.03
2018-10-21T22:46:36.649Z,8.60
2018-10-21T22:49:05.085Z,8.70
2018-10-21T22:51:33.205Z,9.23
2018-10-21T22:54:01.370Z,8.90
2018-10-21T22:56:29.489Z,8.47
2018-10-21T22:58:57.664Z,8.60
2018-10-21T23:01:25.858Z,8.43
2018-10-21T23:03:54.005Z,8.30
2018-10-21T23:06:22.154Z,7.57
2018-10-21T23:08:50.301Z,9.77
2018-10-21T23:11:18.457Z,8.80
2018-10-21T23:13:46.600Z,8.20
2018-10-21T23:16:14.776Z,9.40
2018-10-21T23:18:43.148Z,9.17
2018-10-21T23:21:11.189Z,8.73
2018-10-21T23:23:39.366Z,8.23
2018-10-21T23:26:07.602Z,9.47
2018-10-21T23:28:35.761Z,8.43
2018-10-21T23:31:03.888Z,8.70
2018-10-21T23:33:32.057Z,7.67
2018-10-21T23:36:00.555Z,8.33
2018-10-21T23:38:28.707Z,8.53
2018-10-21T23:40:56.879Z,8.83
2018-10-21T23:43:25.067Z,8.17
2018-10-21T23:45:53.297Z,8.03
2018-10-21T23:48:21.485Z,9.07
2018-10-21T23:50:50.280Z,7.70
2018-10-21T23:53:18.494Z,7.97
2018-10-21T23:55:46.693Z,7.30
2018-10-21T23:58:14.917Z,8.83
